Time;durP1;ratioP1;P1;durP2;ratioP2;P2;SDS_P1;SDS_P2;PMS_P1;PMS_P2;Temp;Humidity;BMP_temperature;BMP_pressure;BME280_temperature;BME280_humidity;BME280_pressure;Samples;Min_cycle;Max_cycle;Signal;HPM_P1;HPM_P2
2022/05/02 00:01:00;;;;;;;2.95;2.65;;;6.20;99.90;;;;;;6247957;22;20027;-85
2022/05/02 00:03:26;;;;;;;4.50;3.23;;;7.40;99.90;;;;;;6222652;22;20008;-85
2022/05/02 00:05:52;;;;;;;3.00;2.67;;;6.10;99.90;;;;;;6222562;22;20370;-87
2022/05/02 00:08:24;;;;;;;2.50;2.30;;;7.00;99.90;;;;;;6226048;22;20065;-88
2022/05/02 00:11:00;;;;;;;2.60;2.35;;;6.10;99.90;;;;;;6222183;22;20016;-87
2022/05/02 00:13:29;;;;;;;5.03;2.70;;;6.00;99.90;;;;;;6198337;22;20432;-87
2022/05/02 00:16:00;;;;;;;4.80;3.78;;;6.00;99.90;;;;;;6223356;22;20047;-87
2022/05/02 00:18:28;;;;;;;6.00;3.40;;;6.00;99.90;;;;;;6197551;22;20065;-86
2022/05/02 00:20:57;;;;;;;3.58;2.70;;;6.10;99.90;;;;;;6221795;22;20019;-87
2022/05/02 00:23:36;;;;;;;;;;;;;;;;;;;;;
2022/05/02 00:26:09;;;;;;;4.68;3.05;;;6.20;99.90;;;;;;6248152;22;20019;-86
2022/05/02 00:28:42;;;;;;;3.40;2.75;;;7.20;99.90;;;;;;6247352;22;20227;-88
2022/05/02 00:31:10;;;;;;;3.15;2.60;;;6.00;99.90;;;;;;6222896;22;20019;-87
2022/05/02 00:33:47;;;;;;;;;;;;;;;;;;;;;
2022/05/02 00:36:15;;;;;;;3.15;2.85;;;5.90;99.90;;;;;;6246783;22;20011;-87
2022/05/02 00:38:44;;;;;;;5.40;3.25;;;5.90;99.90;;;;;;6221473;22;20012;-88
2022/05/02 00:41:28;;;;;;;3.00;2.78;;;5.90;99.90;;;;;;6247937;22;20443;-87
2022/05/02 00:43:59;;;;;;;4.45;3.13;;;6.00;99.90;;;;;;6222590;22;20332;-87
2022/05/02 00:46:28;;;;;;;4.82;2.78;;;5.90;99.90;;;;;;6222814;22;20016;-87
2022/05/02 00:48:59;;;;;;;5.35;3.13;;;5.40;99.90;;;;;;6221772;22;20323;-88
2022/05/02 00:51:28;;;;;;;4.75;3.28;;;5.80;99.90;;;;;;6222828;22;20189;-87
2022/05/02 00:53:56;;;;;;;3.07;2.63;;;5.50;99.90;;;;;;6197221;22;20440;-88
2022/05/02 00:56:27;;;;;;;5.20;3.80;;;5.80;99.90;;;;;;6223741;22;20046;-87
2022/05/02 00:58:54;;;;;;;5.90;3.25;;;6.50;99.90;;;;;;6222279;22;20011;-87
2022/05/02 01:01:24;;;;;;;5.35;3.10;;;5.60;99.90;;;;;;6222851;22;20142;-87
2022/05/02 01:03:57;;;;;;;4.40;2.40;;;5.70;99.90;;;;;;6247642;22;20008;-87
2022/05/02 01:09:17;;;;;;;4.15;2.85;;;5.70;99.90;;;;;;6247553;22;20012;-87
2022/05/02 01:11:53;;;;;;;5.28;2.95;;;6.30;99.90;;;;;;6197808;22;20102;-88
2022/05/02 01:14:22;;;;;;;3.30;2.72;;;5.60;99.90;;;;;;6222401;22;20012;-87
2022/05/02 01:16:52;;;;;;;5.30;3.08;;;5.40;99.90;;;;;;6223458;22;20019;-87
2022/05/02 01:19:23;;;;;;;3.60;3.15;;;5.40;99.90;;;;;;6249329;22;20058;-87
2022/05/02 01:22:01;;;;;;;;;;;;;;;;;;;;;
2022/05/02 01:24:47;;;;;;;5.03;3.65;;;5.50;99.90;;;;;;6249731;22;20012;-87
2022/05/02 01:27:14;;;;;;;3.78;3.00;;;5.60;99.90;;;;;;6224484;22;20436;-92
2022/05/02 01:29:45;;;;;;;5.15;3.90;;;6.20;99.90;;;;;;6224422;22;20008;-92
2022/05/02 01:32:14;;;;;;;5.50;3.53;;;6.90;99.90;;;;;;6250479;22;20011;-92
2022/05/02 01:34:42;;;;;;;3.08;2.88;;;5.20;99.90;;;;;;6250308;22;20386;-92
2022/05/02 01:37:12;;;;;;;3.70;2.97;;;5.30;99.90;;;;;;6225411;22;20015;-92
2022/05/02 01:39:41;;;;;;;4.28;2.83;;;6.90;99.90;;;;;;6250082;22;20011;-92
2022/05/02 01:42:16;;;;;;;7.25;3.17;;;6.80;99.90;;;;;;6250225;22;20014;-92
2022/05/02 01:44:44;;;;;;;5.75;2.78;;;5.20;99.90;;;;;;6250146;22;20016;-92
2022/05/02 01:47:15;;;;;;;4.20;3.13;;;4.90;99.90;;;;;;6224626;22;20022;-92
2022/05/02 01:49:40;;;;;;;7.18;3.05;;;5.50;99.90;;;;;;6223901;22;20066;-92
2022/05/02 01:52:09;;;;;;;3.93;3.33;;;4.90;99.90;;;;;;6224867;22;20011;-92
2022/05/02 01:54:37;;;;;;;5.53;3.45;;;4.90;99.90;;;;;;6224861;22;20019;-92
2022/05/02 01:57:03;;;;;;;4.32;2.63;;;4.90;99.90;;;;;;6250371;22;20078;-92
2022/05/02 01:59:31;;;;;;;5.40;3.27;;;4.80;99.90;;;;;;6224521;22;20042;-92
2022/05/02 02:02:01;;;;;;;8.82;3.60;;;5.00;99.90;;;;;;6249566;22;20050;-92
2022/05/02 02:07:19;;;;;;;6.18;3.28;;;4.90;99.90;;;;;;6250282;22;20016;-93
2022/05/02 02:09:47;;;;;;;6.50;3.80;;;6.10;99.90;;;;;;6249787;22;20047;-92
2022/05/02 02:12:23;;;;;;;4.45;2.97;;;4.80;99.90;;;;;;6225715;22;20067;-91
2022/05/02 02:14:53;;;;;;;4.53;2.95;;;4.90;99.90;;;;;;6202518;22;20362;-91
2022/05/02 02:17:22;;;;;;;4.85;3.33;;;4.70;99.90;;;;;;6250153;22;20012;-91
2022/05/02 02:19:47;;;;;;;5.43;3.05;;;4.70;99.90;;;;;;6224102;22;20446;-93
2022/05/02 02:22:18;;;;;;;5.00;3.67;;;4.70;99.90;;;;;;6224797;22;20012;-92
2022/05/02 02:24:46;;;;;;;4.03;2.80;;;4.60;99.90;;;;;;6199954;22;20008;-93
2022/05/02 02:27:14;;;;;;;5.97;4.15;;;4.70;99.90;;;;;;6249388;22;20444;-92
2022/05/02 02:29:40;;;;;;;4.82;3.40;;;6.00;99.90;;;;;;6224213;22;20012;-95
2022/05/02 02:32:11;;;;;;;4.93;4.03;;;4.70;99.90;;;;;;6224695;22;20011;-92
2022/05/02 02:34:37;;;;;;;5.25;3.90;;;4.60;99.90;;;;;;6250097;22;20342;-91
2022/05/02 02:37:03;;;;;;;4.82;3.72;;;4.60;99.90;;;;;;6223709;22;20066;-92
2022/05/02 02:39:31;;;;;;;4.10;3.42;;;4.60;99.90;;;;;;6224420;22;20022;-91
2022/05/02 02:41:58;;;;;;;3.63;2.38;;;4.50;99.90;;;;;;6249478;22;20073;-91
2022/05/02 02:44:24;;;;;;;6.95;3.80;;;4.40;99.90;;;;;;6249781;22;20392;-92
2022/05/02 02:46:50;;;;;;;2.87;2.50;;;5.30;99.90;;;;;;6223766;22;20022;-92
2022/05/02 02:49:18;;;;;;;4.80;3.70;;;4.30;99.90;;;;;;6224525;22;20079;-92
2022/05/02 02:51:44;;;;;;;4.60;3.35;;;3.30;99.90;;;;;;6224229;22;20050;-92
2022/05/02 02:54:12;;;;;;;4.20;3.80;;;4.20;99.90;;;;;;6224648;22;20016;-92
2022/05/02 02:56:38;;;;;;;3.30;3.00;;;3.90;99.90;;;;;;6224032;22;20016;-92
2022/05/02 02:59:09;;;;;;;3.42;2.50;;;5.60;99.90;;;;;;6224023;22;20012;-92
2022/05/02 03:01:37;;;;;;;5.28;4.30;;;4.20;99.90;;;;;;6199651;22;20020;-91
2022/05/02 03:06:01;;;;;;;7.35;3.67;;;4.30;99.90;;;;;;6249397;22;20019;-91
2022/05/02 03:06:51;;;;;;;5.35;4.15;;;4.10;99.90;;;;;;6227144;22;20030;-93
2022/05/02 03:09:19;;;;;;;5.25;4.13;;;5.30;99.90;;;;;;6224568;22;20012;-91
2022/05/02 03:11:48;;;;;;;5.32;3.67;;;4.10;99.90;;;;;;6224002;22;20076;-95
2022/05/02 03:14:13;;;;;;;5.45;3.60;;;4.10;99.90;;;;;;6224306;22;20069;-92
2022/05/02 03:16:42;;;;;;;5.03;3.83;;;5.40;99.90;;;;;;6249508;22;20069;-92
2022/05/02 03:19:08;;;;;;;8.13;3.70;;;5.30;99.90;;;;;;6223914;22;20047;-91
2022/05/02 03:21:36;;;;;;;4.60;3.58;;;4.00;99.90;;;;;;6224109;22;20247;-92
2022/05/02 03:24:05;;;;;;;4.30;3.00;;;3.90;99.90;;;;;;6223797;22;20388;-91
2022/05/02 03:26:51;;;;;;;3.95;2.92;;;3.90;99.90;;;;;;6224402;22;20016;-92
2022/05/02 03:29:25;;;;;;;2.88;2.67;;;2.70;99.90;;;;;;6223113;22;20015;-91
2022/05/02 03:31:54;;;;;;;4.25;3.25;;;3.90;99.90;;;;;;6223619;22;20095;-92
2022/05/02 03:34:19;;;;;;;6.60;2.97;;;3.20;99.90;;;;;;6223789;22;20091;-91
2022/05/02 03:36:45;;;;;;;5.68;3.67;;;4.70;99.90;;;;;;6223487;22;20096;-91
2022/05/02 03:39:20;;;;;;;3.83;3.40;;;5.20;99.90;;;;;;6223123;22;20090;-91
2022/05/02 03:41:49;;;;;;;4.78;3.28;;;3.60;99.90;;;;;;6249020;22;20016;-92
2022/05/02 03:44:15;;;;;;;2.75;2.10;;;5.00;99.90;;;;;;6224152;22;20050;-92
2022/05/02 03:46:44;;;;;;;2.87;2.57;;;3.50;99.90;;;;;;6198971;22;20016;-91
2022/05/02 03:49:13;;;;;;;5.22;3.75;;;3.40;99.90;;;;;;6248469;22;20272;-91
2022/05/02 03:51:41;;;;;;;4.15;3.28;;;3.60;99.90;;;;;;6199209;22;20443;-91
2022/05/02 03:54:07;;;;;;;5.88;3.85;;;4.90;99.90;;;;;;6223301;22;20280;-92
2022/05/02 03:56:33;;;;;;;4.97;3.78;;;3.40;99.90;;;;;;6249105;22;20490;-91
2022/05/02 03:58:59;;;;;;;4.63;3.63;;;4.90;99.90;;;;;;6223325;22;20097;-91
2022/05/02 04:01:27;;;;;;;5.80;4.20;;;4.10;99.90;;;;;;6198493;22;20098;-91
2022/05/02 04:03:55;;;;;;;3.58;3.10;;;4.90;99.90;;;;;;6174785;22;20018;-93
2022/05/02 04:06:21;;;;;;;5.82;3.42;;;4.80;99.90;;;;;;6223494;22;20015;-91
2022/05/02 04:08:46;;;;;;;11.52;4.05;;;3.60;99.90;;;;;;6248631;22;20016;-91
2022/05/02 04:11:14;;;;;;;6.07;3.72;;;3.50;99.90;;;;;;6223456;22;20223;-91
2022/05/02 04:13:43;;;;;;;5.75;3.58;;;3.40;99.90;;;;;;6223880;22;20065;-91
2022/05/02 04:16:11;;;;;;;4.30;3.30;;;4.90;99.90;;;;;;6223085;22;20016;-92
2022/05/02 04:18:40;;;;;;;4.13;3.72;;;3.60;99.90;;;;;;6223396;22;20443;-93
2022/05/02 04:21:06;;;;;;;4.60;3.30;;;4.40;99.90;;;;;;6223962;22;20015;-92
2022/05/02 04:23:36;;;;;;;4.55;4.13;;;3.50;99.90;;;;;;6223873;22;20012;-92
2022/05/02 04:26:02;;;;;;;7.22;4.65;;;4.60;99.90;;;;;;6248570;22;20014;-92
2022/05/02 04:28:28;;;;;;;6.75;4.00;;;3.00;99.90;;;;;;6223408;22;20016;-92
2022/05/02 04:30:57;;;;;;;3.38;2.95;;;3.50;99.90;;;;;;6223875;22;20324;-91
2022/05/02 04:33:24;;;;;;;9.30;3.50;;;4.50;99.90;;;;;;6223481;22;20324;-91
2022/05/02 04:35:49;;;;;;;7.03;3.80;;;4.70;99.90;;;;;;6223289;22;20019;-93
2022/05/02 04:38:17;;;;;;;4.97;3.73;;;5.20;99.90;;;;;;6222948;22;20012;-91
2022/05/02 04:40:43;;;;;;;12.10;3.95;;;3.70;99.90;;;;;;6249038;22;20018;-92
2022/05/02 04:43:09;;;;;;;4.57;3.20;;;3.60;99.90;;;;;;6223001;22;20008;-91
2022/05/02 04:45:38;;;;;;;2.72;2.35;;;3.50;99.90;;;;;;6223654;22;20012;-92
2022/05/02 04:48:04;;;;;;;6.05;3.30;;;4.20;99.90;;;;;;6223663;22;20043;-91
2022/05/02 04:50:37;;;;;;;6.40;4.23;;;3.70;99.90;;;;;;6198502;22;20012;-91
2022/05/02 04:53:03;;;;;;;7.00;5.00;;;5.00;99.90;;;;;;6224974;22;20748;-92
2022/05/02 04:55:31;;;;;;;6.03;3.58;;;3.70;99.90;;;;;;6250518;22;20020;-91
2022/05/02 04:57:57;;;;;;;8.20;5.00;;;4.10;99.90;;;;;;6225972;22;20011;-91
2022/05/02 05:00:28;;;;;;;4.15;3.75;;;3.90;99.90;;;;;;6249912;22;20008;-93
2022/05/02 05:02:56;;;;;;;7.28;4.97;;;4.00;99.90;;;;;;6225177;22;20015;-91
2022/05/02 05:05:24;;;;;;;6.30;4.15;;;5.20;99.90;;;;;;6224993;22;20014;-92
2022/05/02 05:07:51;;;;;;;9.18;4.78;;;4.30;99.90;;;;;;6225126;22;20041;-89
2022/05/02 05:10:17;;;;;;;5.65;4.30;;;5.80;99.90;;;;;;6249550;22;20330;-88
2022/05/02 05:13:06;;;;;;;6.43;4.45;;;4.40;99.90;;;;;;6224883;22;20141;-88
2022/05/02 05:19:01;;;;;;;6.05;4.32;;;4.90;99.90;;;;;;6250508;22;20011;-89
2022/05/02 05:21:42;;;;;;;5.03;4.40;;;5.00;99.90;;;;;;6143868;22;20020;-89
2022/05/02 05:24:30;;;;;;;6.93;4.70;;;5.20;99.90;;;;;;6225058;22;20011;-89
2022/05/02 05:27:19;;;;;;;5.00;4.45;;;5.70;99.90;;;;;;6225301;22;20033;-90
2022/05/02 05:29:57;;;;;;;6.18;5.07;;;6.20;99.90;;;;;;6250556;22;20327;-87
2022/05/02 05:32:28;;;;;;;;;;;6.70;99.90;;;;;;6254829;22;20016;-90
2022/05/02 05:35:09;;;;;;;8.07;4.18;;;6.90;99.90;;;;;;6225470;22;19936;-93
2022/05/02 05:38:17;;;;;;;8.38;5.10;;;7.80;99.90;;;;;;6224912;22;20016;-93
2022/05/02 05:40:49;;;;;;;6.95;5.35;;;7.70;99.90;;;;;;6225614;22;20012;-93
2022/05/02 05:43:54;;;;;;;7.40;5.07;;;7.90;99.90;;;;;;6250581;22;20014;-89
2022/05/02 05:46:49;;;;;;;8.05;5.20;;;8.40;99.90;;;;;;6225087;22;20098;-90
2022/05/02 05:49:39;;;;;;;5.25;4.32;;;7.90;99.90;;;;;;6224607;22;20378;-91
2022/05/02 05:52:33;;;;;;;5.97;3.65;;;8.90;99.90;;;;;;6224629;22;20020;-89
2022/05/02 05:55:07;;;;;;;5.35;4.30;;;9.10;99.90;;;;;;6196967;22;20068;-87
2022/05/02 05:57:57;;;;;;;7.95;5.03;;;9.20;99.90;;;;;;6225492;22;20007;-89
2022/05/02 06:00:32;;;;;;;7.72;4.95;;;9.30;99.90;;;;;;6224438;22;20420;-88
2022/05/02 06:03:14;;;;;;;6.13;4.60;;;9.30;99.90;;;;;;6224806;22;20332;-84
2022/05/02 06:05:45;;;;;;;6.53;3.83;;;9.40;99.90;;;;;;6249891;22;20039;-84
2022/05/02 06:08:14;;;;;;;5.72;4.60;;;9.40;99.90;;;;;;6224355;22;20047;-89
2022/05/02 06:10:42;;;;;;;5.18;4.10;;;9.40;99.90;;;;;;6249561;22;20069;-84
2022/05/02 06:13:09;;;;;;;7.10;5.07;;;9.40;99.90;;;;;;6199626;22;20016;-83
2022/05/02 06:18:28;;;;;;;4.90;3.22;;;9.30;99.90;;;;;;6249836;22;19910;-85
2022/05/02 06:20:59;;;;;;;7.43;4.40;;;9.30;99.90;;;;;;6224408;22;20065;-87
2022/05/02 06:23:28;;;;;;;7.20;3.90;;;9.50;99.90;;;;;;6248967;22;20022;-86
2022/05/02 06:25:57;;;;;;;6.63;4.35;;;9.60;99.90;;;;;;6250078;22;20497;-85
2022/05/02 06:28:42;;;;;;;4.35;3.95;;;9.70;99.90;;;;;;6199150;22;20016;-92
2022/05/02 06:31:22;;;;;;;8.57;5.55;;;9.30;99.90;;;;;;6251914;22;20060;-89
2022/05/02 06:33:50;;;;;;;7.03;4.82;;;10.40;99.90;;;;;;6224399;22;20498;-87
2022/05/02 06:36:47;;;;;;;6.75;4.10;;;10.60;99.90;;;;;;6223770;22;20327;-88
2022/05/02 06:39:47;;;;;;;;;;;;;;;;;;;;;
2022/05/02 06:42:39;;;;;;;6.68;4.22;;;11.20;99.90;;;;;;6249624;22;20018;-89
2022/05/02 06:45:36;;;;;;;5.35;4.00;;;11.60;99.90;;;;;;6223525;22;20015;-89
2022/05/02 06:48:08;;;;;;;4.38;3.97;;;11.80;99.90;;;;;;6224408;22;20023;-91
2022/05/02 06:50:55;;;;;;;6.43;4.57;;;12.00;99.90;;;;;;6252438;22;20023;-92
2022/05/02 06:53:35;;;;;;;7.38;5.70;;;11.90;99.90;;;;;;6224684;22;20419;-91
2022/05/02 06:56:13;;;;;;;4.80;4.13;;;12.30;99.90;;;;;;6224520;22;20055;-87
2022/05/02 06:59:06;;;;;;;8.93;4.10;;;12.50;99.90;;;;;;6223976;22;20019;-89
2022/05/02 07:01:53;;;;;;;4.60;3.08;;;12.60;99.90;;;;;;6234455;22;20058;-89
2022/05/02 07:04:29;;;;;;;4.82;3.88;;;12.80;99.90;;;;;;6249256;22;20012;-90
2022/05/02 07:07:20;;;;;;;5.47;3.83;;;12.80;99.90;;;;;;6224638;22;20031;-89
2022/05/02 07:10:00;;;;;;;5.10;3.72;;;13.00;99.90;;;;;;6249038;22;20020;-94
2022/05/02 07:12:40;;;;;;;;;;;;;;;;;;;;;
2022/05/02 07:15:29;;;;;;;3.67;3.17;;;13.50;99.90;;;;;;6248950;22;20022;-91
2022/05/02 07:18:08;;;;;;;4.18;3.08;;;13.80;99.90;;;;;;6249614;22;20023;-91
2022/05/02 07:20:59;;;;;;;4.32;3.42;;;13.80;99.90;;;;;;6223902;22;20016;-92
2022/05/02 07:23:45;;;;;;;5.88;2.72;;;14.00;99.90;;;;;;6249744;22;20016;-92
2022/05/02 07:26:30;;;;;;;;;;;;;;;;;;;;;
2022/05/02 07:29:08;;;;;;;5.03;2.88;;;13.70;99.90;;;;;;6250045;22;20047;-91
2022/05/02 07:31:37;;;;;;;4.80;3.50;;;14.60;99.90;;;;;;6249600;22;20094;-92
2022/05/02 07:34:15;;;;;;;6.72;4.22;;;14.00;99.90;;;;;;6224984;22;20043;-91
2022/05/02 07:36:59;;;;;;;5.90;2.90;;;14.70;99.90;;;;;;6224103;22;20019;-91
2022/05/02 07:39:35;;;;;;;5.28;3.50;;;14.90;99.90;;;;;;6223899;22;20015;-92
2022/05/02 07:42:07;;;;;;;6.03;3.33;;;15.30;99.90;;;;;;6224147;22;20026;-91
2022/05/02 07:44:34;;;;;;;4.05;3.50;;;15.40;99.90;;;;;;6223418;22;20027;-91
2022/05/02 07:47:06;;;;;;;3.53;3.22;;;15.50;99.90;;;;;;6223853;22;20015;-90
2022/05/02 07:49:39;;;;;;;3.90;3.03;;;15.50;99.90;;;;;;6200419;22;20055;-91
2022/05/02 07:52:07;;;;;;;5.82;3.13;;;15.70;99.90;;;;;;6224225;22;20020;-93
2022/05/02 07:54:43;;;;;;;7.43;3.80;;;15.80;99.90;;;;;;6224632;22;20526;-90
2022/05/02 07:57:24;;;;;;;3.75;2.80;;;15.90;99.90;;;;;;6223389;22;20019;-92
2022/05/02 07:59:59;;;;;;;2.75;2.33;;;16.20;99.90;;;;;;6224326;22;20085;-93
2022/05/02 08:02:27;;;;;;;4.05;2.55;;;16.20;99.90;;;;;;6229948;22;20047;-95
2022/05/02 08:04:53;;;;;;;5.35;3.72;;;15.80;99.90;;;;;;6224057;22;20020;-91
2022/05/02 08:07:28;;;;;;;3.22;2.92;;;16.50;99.90;;;;;;6249251;22;20016;-86
2022/05/02 08:09:54;;;;;;;6.53;3.28;;;17.00;99.90;;;;;;6248865;22;20047;-86
2022/05/02 08:12:26;;;;;;;4.72;3.10;;;17.00;99.90;;;;;;6249150;22;20026;-86
2022/05/02 08:15:27;;;;;;;3.88;2.95;;;17.10;99.90;;;;;;6249074;22;20011;-85
2022/05/02 08:18:29;;;;;;;4.25;2.53;;;17.20;99.90;;;;;;6127909;23;20392;-86
2022/05/02 08:21:22;;;;;;;4.15;2.97;;;17.40;97.20;;;;;;6248687;22;20016;-86
2022/05/02 08:27:54;;;;;;;4.70;2.92;;;17.70;95.40;;;;;;6249069;22;20160;-86
2022/05/02 08:30:31;;;;;;;4.57;3.05;;;17.80;94.30;;;;;;6269636;22;20024;-89
2022/05/02 08:33:02;;;;;;;4.22;2.97;;;17.80;95.60;;;;;;6276607;22;20019;-86
2022/05/02 08:36:10;;;;;;;3.55;3.00;;;18.00;96.80;;;;;;6248884;22;20016;-88
2022/05/02 08:38:58;;;;;;;3.53;2.78;;;18.10;93.00;;;;;;6223675;22;20019;-91
2022/05/02 08:41:40;;;;;;;3.55;2.95;;;18.10;94.60;;;;;;6223128;22;20020;-90
2022/05/02 08:44:30;;;;;;;4.55;2.92;;;18.10;92.10;;;;;;6248953;22;20020;-91
2022/05/02 08:47:17;;;;;;;4.22;2.88;;;18.10;91.60;;;;;;6249188;22;20023;-91
2022/05/02 08:50:05;;;;;;;6.90;2.83;;;18.10;90.70;;;;;;6222868;22;20016;-91
2022/05/02 08:52:49;;;;;;;;;;;18.20;91.70;;;;;;6224545;22;20525;-88
2022/05/02 08:56:14;;;;;;;4.88;3.47;;;18.20;89.80;;;;;;6248167;22;19922;-88
2022/05/02 08:59:09;;;;;;;2.97;2.67;;;18.50;87.00;;;;;;6103313;23;20021;-90
2022/05/02 09:02:04;;;;;;;3.88;3.10;;;18.70;84.70;;;;;;6278828;22;20444;-94
2022/05/02 09:05:01;;;;;;;4.43;2.60;;;18.80;82.30;;;;;;6249020;22;20111;-90
2022/05/02 09:07:52;;;;;;;4.55;3.35;;;18.80;81.50;;;;;;6222986;22;20020;-88
2022/05/02 09:11:07;;;;;;;3.08;2.63;;;18.50;83.40;;;;;;6223098;22;20066;-87
2022/05/02 09:13:39;;;;;;;5.35;2.83;;;18.10;79.10;;;;;;6248151;22;20012;-89
2022/05/02 09:16:46;;;;;;;3.08;2.72;;;18.20;83.70;;;;;;6248618;22;20394;-88
2022/05/02 09:19:15;;;;;;;5.25;3.97;;;18.40;79.60;;;;;;6248531;22;20016;-92
2022/05/02 09:21:41;;;;;;;4.75;3.47;;;18.50;80.50;;;;;;6226970;22;20023;-92
2022/05/02 09:24:37;;;;;;;5.32;2.47;;;18.50;80.50;;;;;;6249355;22;20019;-87
2022/05/02 09:27:13;;;;;;;3.55;2.60;;;18.60;75.70;;;;;;6249166;22;20065;-86
2022/05/02 09:30:14;;;;;;;4.93;3.50;;;18.80;76.90;;;;;;6248346;22;20020;-86
2022/05/02 09:33:11;;;;;;;3.13;2.83;;;19.10;75.40;;;;;;6248311;22;20027;-92
2022/05/02 09:35:52;;;;;;;4.75;2.63;;;19.30;75.00;;;;;;6248286;22;20024;-90
2022/05/02 09:38:29;;;;;;;4.13;2.90;;;19.50;75.50;;;;;;6249461;22;20015;-90
2022/05/02 09:41:15;;;;;;;3.03;2.45;;;19.30;75.50;;;;;;6224580;22;20515;-89
2022/05/02 09:50:03;;;;;;;2.42;2.22;;;19.50;71.20;;;;;;6249824;22;20625;-82
2022/05/02 09:52:38;;;;;;;5.82;2.65;;;19.30;73.50;;;;;;6251224;22;20099;-83
2022/05/02 09:58:35;;;;;;;4.45;2.95;;;19.20;71.30;;;;;;6250703;22;20521;-86
2022/05/02 10:01:17;;;;;;;8.05;3.15;;;19.40;69.80;;;;;;6250052;22;20011;-86
2022/05/02 10:03:58;;;;;;;3.55;2.58;;;19.40;73.30;;;;;;6225266;22;20022;-87
2022/05/02 10:06:46;;;;;;;5.10;2.95;;;19.40;68.90;;;;;;6277878;22;20012;-87
2022/05/02 10:09:31;;;;;;;4.30;2.90;;;19.50;70.30;;;;;;6251262;22;20313;-87
2022/05/02 10:12:10;;;;;;;2.72;2.47;;;19.60;68.30;;;;;;6225373;22;20022;-87
2022/05/02 10:14:57;;;;;;;4.55;2.92;;;19.60;68.40;;;;;;6251095;22;20059;-87
2022/05/02 10:17:43;;;;;;;5.60;2.70;;;19.60;68.00;;;;;;6250629;22;20051;-87
2022/05/02 10:20:18;;;;;;;6.65;2.63;;;19.60;67.10;;;;;;6225368;22;20023;-87
2022/05/02 10:23:21;;;;;;;2.42;2.17;;;19.80;67.20;;;;;;6224777;22;20024;-87
2022/05/02 10:26:21;;;;;;;2.95;2.42;;;19.80;68.00;;;;;;6227508;22;20388;-87
2022/05/02 10:29:35;;;;;;;4.13;2.33;;;19.90;66.60;;;;;;6250317;22;20027;-87
2022/05/02 10:32:36;;;;;;;3.55;2.70;;;20.10;65.10;;;;;;6250957;22;20020;-88
2022/05/02 10:35:03;;;;;;;2.30;2.08;;;20.20;65.10;;;;;;6249015;22;20020;-87
2022/05/02 10:37:34;;;;;;;1.88;1.63;;;20.20;66.80;;;;;;6277405;22;20020;-87
2022/05/02 10:40:08;;;;;;;3.88;2.30;;;20.50;65.80;;;;;;6250568;22;20012;-87
2022/05/02 10:42:35;;;;;;;3.38;2.75;;;20.60;64.10;;;;;;6250766;22;20475;-86
2022/05/02 10:45:06;;;;;;;2.83;2.53;;;20.70;64.80;;;;;;6225190;22;20344;-87
2022/05/02 10:47:56;;;;;;;5.07;2.63;;;20.70;63.20;;;;;;6250542;22;20091;-87
2022/05/02 10:50:27;;;;;;;2.67;2.17;;;20.60;60.40;;;;;;6238629;22;20012;-87
2022/05/02 10:53:09;;;;;;;5.13;3.20;;;20.80;63.10;;;;;;6277487;22;20051;-87
2022/05/02 10:55:46;;;;;;;3.55;2.08;;;20.80;63.10;;;;;;6250157;22;20015;-87
2022/05/02 10:58:12;;;;;;;2.92;2.63;;;20.90;63.00;;;;;;6250785;22;20411;-87
2022/05/02 11:01:05;;;;;;;5.03;2.45;;;20.80;63.30;;;;;;6224624;22;20023;-87
2022/05/02 11:03:55;;;;;;;4.68;2.45;;;20.70;60.10;;;;;;6250723;22;20051;-87
2022/05/02 11:06:53;;;;;;;3.13;2.33;;;20.30;59.40;;;;;;6225305;22;20026;-87
2022/05/02 11:09:36;;;;;;;4.15;2.13;;;20.40;61.40;;;;;;6224450;22;20023;-88
2022/05/02 11:12:04;;;;;;;3.33;2.10;;;20.40;61.00;;;;;;6249424;22;20011;-87
2022/05/02 11:14:48;;;;;;;4.70;2.83;;;20.30;61.30;;;;;;6249864;22;20090;-87
2022/05/02 11:17:29;;;;;;;3.72;2.80;;;20.20;61.00;;;;;;6249817;22;20029;-87
2022/05/02 11:20:48;;;;;;;3.60;2.38;;;20.00;60.10;;;;;;6249112;22;20016;-87
2022/05/02 11:23:19;;;;;;;3.15;2.10;;;19.80;59.30;;;;;;6128942;23;20017;-87
2022/05/02 11:25:54;;;;;;;3.22;1.98;;;19.80;60.10;;;;;;6244308;22;20022;-87
2022/05/02 11:28:40;;;;;;;2.17;1.95;;;19.90;59.60;;;;;;6250738;22;20016;-87
2022/05/02 11:31:25;;;;;;;5.57;2.30;;;20.00;58.60;;;;;;6249877;22;20084;-87
2022/05/02 11:34:37;;;;;;;2.10;1.90;;;20.10;58.30;;;;;;6249979;22;20016;-88
2022/05/02 11:37:06;;;;;;;3.90;1.60;;;20.20;56.80;;;;;;6204043;22;20094;-88
2022/05/02 11:39:56;;;;;;;2.85;2.10;;;20.50;58.20;;;;;;6250217;22;20015;-89
2022/05/02 11:42:22;;;;;;;2.90;2.53;;;20.90;55.60;;;;;;6277023;22;20131;-89
2022/05/02 11:44:57;;;;;;;6.47;1.98;;;20.90;56.10;;;;;;6249716;22;20145;-89
2022/05/02 11:47:57;;;;;;;3.20;2.22;;;21.10;56.00;;;;;;6224546;22;20015;-87
2022/05/02 11:50:25;;;;;;;4.25;2.55;;;21.20;54.90;;;;;;6249822;22;20024;-87
2022/05/02 11:52:55;;;;;;;3.47;2.80;;;21.30;57.80;;;;;;6276819;22;20015;-87
2022/05/02 11:55:33;;;;;;;3.78;3.35;;;21.30;57.80;;;;;;6249796;22;20019;-87
2022/05/02 11:58:07;;;;;;;3.28;2.28;;;21.30;57.90;;;;;;6249342;22;20022;-87
2022/05/02 12:00:35;;;;;;;2.50;2.30;;;21.30;57.50;;;;;;6250043;22;20046;-87
2022/05/02 12:03:15;;;;;;;2.47;1.60;;;21.30;57.00;;;;;;6249479;22;20394;-86
2022/05/02 12:05:43;;;;;;;3.85;1.98;;;21.30;54.40;;;;;;6249977;22;20051;-87
2022/05/02 12:08:10;;;;;;;2.72;1.80;;;21.20;56.80;;;;;;6276584;22;20081;-87
2022/05/02 12:10:47;;;;;;;3.17;1.85;;;21.40;56.70;;;;;;6249637;22;20020;-87
2022/05/02 12:13:18;;;;;;;3.38;2.10;;;21.60;56.40;;;;;;6224140;22;20020;-87
2022/05/02 12:16:02;;;;;;;3.33;2.45;;;21.90;57.40;;;;;;6249774;22;20020;-87
2022/05/02 12:18:41;;;;;;;3.78;2.15;;;22.00;54.40;;;;;;6277074;22;20019;-87
2022/05/02 12:21:08;;;;;;;4.00;2.72;;;21.90;56.70;;;;;;6276757;22;20085;-88
2022/05/02 12:23:37;;;;;;;2.60;2.28;;;21.90;56.90;;;;;;6249313;22;20026;-87
2022/05/02 12:26:12;;;;;;;3.42;3.00;;;21.50;56.50;;;;;;6249410;22;20019;-87
2022/05/02 12:28:51;;;;;;;3.40;2.47;;;21.00;57.20;;;;;;6249980;22;20470;-87
2022/05/02 12:31:29;;;;;;;4.90;2.85;;;20.90;57.50;;;;;;6249642;22;20058;-87
2022/05/02 12:34:07;;;;;;;4.15;2.85;;;20.90;58.00;;;;;;6225145;22;20015;-88
2022/05/02 12:36:45;;;;;;;4.53;3.20;;;20.90;57.80;;;;;;6249623;22;20016;-87
2022/05/02 12:39:17;;;;;;;4.00;2.30;;;21.00;58.50;;;;;;6249274;22;20015;-87
2022/05/02 12:41:47;;;;;;;5.03;2.10;;;21.20;57.70;;;;;;6224501;22;20039;-87
2022/05/02 12:44:14;;;;;;;3.10;2.75;;;21.50;57.50;;;;;;6249352;22;20448;-87
2022/05/02 12:46:47;;;;;;;3.67;2.40;;;21.50;56.90;;;;;;6224209;22;20382;-87
2022/05/02 12:49:26;;;;;;;4.18;3.13;;;21.40;56.50;;;;;;6248956;22;20173;-87
2022/05/02 12:51:54;;;;;;;5.63;2.58;;;21.50;55.50;;;;;;6249689;22;20111;-87
2022/05/02 12:54:21;;;;;;;5.80;2.63;;;21.30;56.20;;;;;;6248787;22;20018;-88
2022/05/02 13:00:30;;;;;;;4.63;2.55;;;21.30;56.50;;;;;;6276714;22;20030;-87
2022/05/02 13:02:34;;;;;;;2.85;2.17;;;21.70;55.80;;;;;;6228133;22;20023;-87
2022/05/02 13:05:16;;;;;;;2.67;2.40;;;21.90;55.60;;;;;;6249320;22;20066;-87
2022/05/02 13:07:45;;;;;;;2.70;2.50;;;21.90;56.00;;;;;;6223842;22;20015;-87
2022/05/02 13:10:24;;;;;;;3.88;2.58;;;21.80;55.20;;;;;;6249117;22;20015;-87
2022/05/02 13:13:06;;;;;;;6.20;2.72;;;21.90;55.30;;;;;;6250357;22;20020;-87
2022/05/02 13:15:47;;;;;;;5.53;2.63;;;21.80;54.90;;;;;;6226393;22;20026;-87
2022/05/02 13:18:18;;;;;;;4.30;2.30;;;21.70;54.90;;;;;;6225373;22;20026;-87
2022/05/02 13:20:57;;;;;;;4.50;2.40;;;22.00;56.00;;;;;;6278197;22;20015;-87
2022/05/02 13:23:34;;;;;;;3.30;2.35;;;21.80;54.70;;;;;;6250880;22;20091;-87
2022/05/02 13:26:19;;;;;;;4.32;2.28;;;21.10;55.20;;;;;;6251404;22;20087;-87
2022/05/02 13:29:09;;;;;;;3.63;2.40;;;21.70;54.10;;;;;;6251286;22;20019;-88
2022/05/02 13:31:44;;;;;;;2.85;2.17;;;21.70;54.40;;;;;;6251257;22;20065;-88
2022/05/02 13:34:29;;;;;;;5.00;2.20;;;21.90;54.90;;;;;;6250833;22;20456;-87
2022/05/02 13:37:29;;;;;;;4.93;2.67;;;21.70;54.50;;;;;;6251037;22;20019;-86
2022/05/02 13:40:09;;;;;;;3.03;2.20;;;21.70;54.50;;;;;;6278048;22;20057;-87
2022/05/02 13:42:53;;;;;;;2.88;2.25;;;21.90;54.20;;;;;;6251426;22;20095;-88
2022/05/02 13:45:32;;;;;;;4.38;2.55;;;22.10;54.60;;;;;;6250868;22;20019;-87
2022/05/02 13:48:37;;;;;;;3.90;2.50;;;22.20;53.30;;;;;;6225400;22;20020;-87
2022/05/02 13:51:19;;;;;;;5.05;2.60;;;22.30;52.80;;;;;;6251558;22;20440;-87
2022/05/02 13:53:56;;;;;;;3.65;2.58;;;22.30;53.00;;;;;;6280224;22;20019;-86
2022/05/02 13:56:27;;;;;;;;;;;22.10;52.30;;;;;;6226639;22;20050;-87
2022/05/02 13:59:32;;;;;;;3.63;2.20;;;22.00;51.80;;;;;;6225096;22;19964;-87
2022/05/02 14:02:01;;;;;;;4.57;2.33;;;21.90;52.30;;;;;;6204927;22;20094;-87
2022/05/02 14:07:10;;;;;;;2.45;2.22;;;21.80;53.60;;;;;;6250768;22;20150;-87
2022/05/02 14:09:41;;;;;;;3.50;2.53;;;21.90;53.30;;;;;;6225552;22;20118;-87
2022/05/02 14:12:22;;;;;;;5.20;2.50;;;21.90;53.60;;;;;;6225342;22;20055;-87
2022/05/02 14:14:59;;;;;;;3.78;2.35;;;22.00;53.70;;;;;;6250350;22;20012;-87
2022/05/02 14:17:41;;;;;;;3.88;2.72;;;21.90;53.70;;;;;;6277654;22;20090;-88
2022/05/02 14:20:29;;;;;;;5.38;2.55;;;21.70;53.70;;;;;;6249872;22;20034;-87